Time;durP1;ratioP1;P1;durP2;ratioP2;P2;SDS_P1;SDS_P2;PMS_P1;PMS_P2;Temp;Humidity;BMP_temperature;BMP_pressure;BME280_temperature;BME280_humidity;BME280_pressure;Samples;Min_cycle;Max_cycle;Signal;HPM_P1;HPM_P2
2022/09/28 00:01:44;;;;;;;58.30;2.70;;;;;;;;;;5052596;28;20459;-65
2022/09/28 00:04:11;;;;;;;58.60;3.40;;;;;;;;;;5053090;28;20475;-64
2022/09/28 00:06:38;;;;;;;57.90;2.60;;;;;;;;;;5052664;28;20488;-64
2022/09/28 00:09:07;;;;;;;58.20;2.80;;;;;;;;;;5052522;28;20450;-66
2022/09/28 00:11:34;;;;;;;58.33;2.70;;;;;;;;;;5052847;28;20459;-65
2022/09/28 00:14:02;;;;;;;58.27;2.60;;;;;;;;;;5049758;28;20467;-64
2022/09/28 00:16:31;;;;;;;58.00;2.50;;;;;;;;;;5052816;28;20484;-65
2022/09/28 00:18:58;;;;;;;58.13;2.60;;;;;;;;;;5052258;28;20502;-65
2022/09/28 00:21:26;;;;;;;57.97;2.60;;;;;;;;;;5052457;28;20456;-64
2022/09/28 00:24:13;;;;;;;59.00;2.97;;;;;;;;;;5052774;28;20444;-64
2022/09/28 00:26:43;;;;;;;58.20;2.80;;;;;;;;;;5052490;28;20494;-65
2022/09/28 00:29:14;;;;;;;58.13;2.47;;;;;;;;;;5052281;28;20460;-64
2022/09/28 00:31:41;;;;;;;58.03;2.60;;;;;;;;;;5052307;28;20456;-64
2022/09/28 00:34:08;;;;;;;57.93;2.50;;;;;;;;;;5052041;28;20978;-63
2022/09/28 00:36:35;;;;;;;58.13;2.57;;;;;;;;;;5052571;28;20452;-65
2022/09/28 00:39:05;;;;;;;58.07;2.67;;;;;;;;;;5052179;28;20454;-66
2022/09/28 00:41:32;;;;;;;58.30;3.00;;;;;;;;;;5051895;28;20821;-65
2022/09/28 00:44:31;;;;;;;58.13;2.60;;;;;;;;;;5051985;28;20448;-65
2022/09/28 00:47:00;;;;;;;58.00;2.67;;;;;;;;;;5049482;28;20491;-64
2022/09/28 00:49:32;;;;;;;58.50;3.20;;;;;;;;;;5052004;28;20826;-64
2022/09/28 00:51:59;;;;;;;58.07;2.80;;;;;;;;;;5052094;28;20460;-65
2022/09/28 00:54:26;;;;;;;58.17;2.70;;;;;;;;;;5051536;28;20807;-65
2022/09/28 00:56:53;;;;;;;58.17;2.83;;;;;;;;;;5052320;28;20440;-65
2022/09/28 00:59:23;;;;;;;58.17;2.60;;;;;;;;;;5051895;28;20470;-65
2022/09/28 01:01:51;;;;;;;58.03;2.60;;;;;;;;;;5051631;28;20456;-65
2022/09/28 01:04:18;;;;;;;58.07;2.50;;;;;;;;;;5051832;28;20472;-65
2022/09/28 01:06:47;;;;;;;58.13;2.60;;;;;;;;;;5051750;28;20488;-66
2022/09/28 01:09:14;;;;;;;58.27;2.60;;;;;;;;;;5051436;28;20805;-65
2022/09/28 01:11:42;;;;;;;58.07;2.57;;;;;;;;;;5051693;28;20451;-65
2022/09/28 01:14:12;;;;;;;58.17;2.50;;;;;;;;;;5051613;28;20846;-65
2022/09/28 01:16:42;;;;;;;58.30;2.70;;;;;;;;;;5051716;28;20440;-65
2022/09/28 01:19:18;;;;;;;58.40;2.73;;;;;;;;;;5049089;28;20448;-65
2022/09/28 01:21:51;;;;;;;58.37;2.70;;;;;;;;;;5051292;28;20458;-64
2022/09/28 01:24:35;;;;;;;57.93;2.60;;;;;;;;;;5051770;28;20468;-65
2022/09/28 01:27:11;;;;;;;68.33;3.67;;;;;;;;;;5051375;28;20483;-65
2022/09/28 01:29:43;;;;;;;57.93;2.87;;;;;;;;;;5051317;28;20448;-65
2022/09/28 01:32:13;;;;;;;58.17;2.80;;;;;;;;;;5051310;28;20969;-65
2022/09/28 01:34:44;;;;;;;58.03;2.70;;;;;;;;;;5051004;28;20490;-66
2022/09/28 01:37:14;;;;;;;58.20;2.70;;;;;;;;;;5051954;28;20437;-65
2022/09/28 01:39:43;;;;;;;58.07;2.70;;;;;;;;;;5051184;28;20459;-65
2022/09/28 01:42:14;;;;;;;58.20;2.70;;;;;;;;;;5051609;28;20448;-65
2022/09/28 01:44:43;;;;;;;57.97;2.60;;;;;;;;;;5048878;28;20476;-66
2022/09/28 01:47:11;;;;;;;58.20;2.90;;;;;;;;;;5051754;28;20844;-65
2022/09/28 01:49:41;;;;;;;58.23;2.60;;;;;;;;;;5051043;28;20456;-65
2022/09/28 01:52:11;;;;;;;58.17;2.77;;;;;;;;;;5048977;28;20468;-66
2022/09/28 01:54:42;;;;;;;57.87;2.63;;;;;;;;;;5051174;28;20468;-66
2022/09/28 01:57:11;;;;;;;58.07;2.53;;;;;;;;;;5051381;28;20462;-65
2022/09/28 01:59:43;;;;;;;58.00;2.50;;;;;;;;;;5050876;28;20633;-65
2022/09/28 02:02:13;;;;;;;58.37;2.90;;;;;;;;;;5050780;28;20966;-66
2022/09/28 02:04:43;;;;;;;58.07;2.63;;;;;;;;;;5051136;28;20475;-65
2022/09/28 02:07:13;;;;;;;58.03;2.80;;;;;;;;;;5050795;28;21004;-64
2022/09/28 02:09:43;;;;;;;58.07;3.10;;;;;;;;;;5050797;28;20441;-64
2022/09/28 02:12:11;;;;;;;58.10;2.60;;;;;;;;;;5051169;28;20448;-65
2022/09/28 02:14:41;;;;;;;57.77;2.67;;;;;;;;;;5050828;28;20476;-66
2022/09/28 02:17:10;;;;;;;57.90;2.40;;;;;;;;;;5051124;28;20448;-65
2022/09/28 02:19:37;;;;;;;58.07;2.60;;;;;;;;;;5050752;28;20482;-65
2022/09/28 02:22:10;;;;;;;57.97;2.57;;;;;;;;;;5051500;28;20455;-65
2022/09/28 02:24:39;;;;;;;57.93;2.57;;;;;;;;;;5048386;28;20483;-66
2022/09/28 02:27:10;;;;;;;58.30;3.07;;;;;;;;;;5050851;28;20480;-65
2022/09/28 02:29:37;;;;;;;58.47;3.10;;;;;;;;;;5050616;28;20440;-65
2022/09/28 02:32:05;;;;;;;58.20;2.83;;;;;;;;;;5053392;28;20460;-65
2022/09/28 02:34:33;;;;;;;58.40;2.73;;;;;;;;;;5054451;28;20476;-65
2022/09/28 02:37:00;;;;;;;58.07;2.70;;;;;;;;;;5054749;28;20854;-65
2022/09/28 02:39:27;;;;;;;58.10;2.67;;;;;;;;;;5054431;28;20829;-64
2022/09/28 02:41:58;;;;;;;58.10;2.60;;;;;;;;;;5054587;28;20444;-65
2022/09/28 02:44:35;;;;;;;58.87;3.87;;;;;;;;;;5054255;28;20474;-66
2022/09/28 02:47:05;;;;;;;58.03;2.80;;;;;;;;;;5054641;28;20586;-66
2022/09/28 02:49:38;;;;;;;58.00;2.90;;;;;;;;;;5054053;28;20455;-66
2022/09/28 02:52:14;;;;;;;58.00;2.60;;;;;;;;;;5054265;28;20452;-66
2022/09/28 02:54:52;;;;;;;58.03;2.70;;;;;;;;;;5054127;28;21012;-65
2022/09/28 02:57:25;;;;;;;57.87;2.40;;;;;;;;;;5051800;28;20456;-66
2022/09/28 02:59:57;;;;;;;57.63;2.33;;;;;;;;;;5054108;28;20456;-64
2022/09/28 03:02:27;;;;;;;57.67;2.47;;;;;;;;;;5054391;28;20478;-65
2022/09/28 03:05:03;;;;;;;58.10;2.80;;;;;;;;;;5053526;28;20554;-65
2022/09/28 03:07:33;;;;;;;58.10;2.70;;;;;;;;;;5054145;28;20486;-66
2022/09/28 03:10:04;;;;;;;58.10;2.47;;;;;;;;;;5053966;28;20448;-65
2022/09/28 03:12:32;;;;;;;57.97;2.67;;;;;;;;;;5054021;28;20452;-66
2022/09/28 03:15:10;;;;;;;57.87;2.60;;;;;;;;;;5053974;28;20472;-66
2022/09/28 03:17:37;;;;;;;58.30;2.80;;;;;;;;;;5054138;28;20448;-66
2022/09/28 03:20:06;;;;;;;57.90;2.60;;;;;;;;;;5053759;28;20452;-65
2022/09/28 03:22:33;;;;;;;57.80;2.50;;;;;;;;;;5053963;28;20456;-66
2022/09/28 03:25:00;;;;;;;58.37;2.97;;;;;;;;;;5053311;28;20468;-65
2022/09/28 03:27:27;;;;;;;57.90;3.10;;;;;;;;;;5054116;28;20488;-65
2022/09/28 03:29:54;;;;;;;57.97;2.70;;;;;;;;;;5051526;28;20454;-65
2022/09/28 03:32:22;;;;;;;57.87;2.60;;;;;;;;;;5053778;28;20452;-66
2022/09/28 03:34:49;;;;;;;57.70;2.67;;;;;;;;;;5053538;28;20480;-64
2022/09/28 03:37:17;;;;;;;58.30;2.80;;;;;;;;;;5053378;28;20827;-65
2022/09/28 03:39:44;;;;;;;58.27;2.60;;;;;;;;;;5053248;28;20448;-65
2022/09/28 03:42:11;;;;;;;57.63;2.50;;;;;;;;;;5053587;28;20452;-67
2022/09/28 03:44:38;;;;;;;57.77;2.60;;;;;;;;;;5052870;28;20838;-66
2022/09/28 03:47:07;;;;;;;57.77;2.57;;;;;;;;;;5053334;28;20488;-66
2022/09/28 03:49:34;;;;;;;57.93;2.47;;;;;;;;;;5053158;28;20448;-65
2022/09/28 03:52:01;;;;;;;58.37;2.60;;;;;;;;;;5053283;28;20829;-65
2022/09/28 03:54:30;;;;;;;57.97;2.80;;;;;;;;;;5053227;28;20880;-65
2022/09/28 03:56:57;;;;;;;57.97;2.80;;;;;;;;;;5052817;28;20466;-66
2022/09/28 03:59:24;;;;;;;57.87;2.50;;;;;;;;;;5052916;28;20456;-67
2022/09/28 04:01:52;;;;;;;58.00;2.33;;;;;;;;;;5050698;28;20461;-65
2022/09/28 04:04:19;;;;;;;57.87;2.50;;;;;;;;;;5052736;28;20475;-65
2022/09/28 04:06:46;;;;;;;57.90;2.50;;;;;;;;;;5052827;28;20491;-66
2022/09/28 04:09:13;;;;;;;58.00;2.40;;;;;;;;;;5052486;28;20829;-66
2022/09/28 04:11:42;;;;;;;57.83;2.37;;;;;;;;;;5052857;28;20448;-66
2022/09/28 04:14:09;;;;;;;57.90;2.40;;;;;;;;;;5052773;28;20479;-65
2022/09/28 04:16:36;;;;;;;57.90;2.47;;;;;;;;;;5052839;28;20445;-66
2022/09/28 04:19:03;;;;;;;57.87;2.50;;;;;;;;;;5052269;28;20448;-66
2022/09/28 04:21:30;;;;;;;57.90;2.70;;;;;;;;;;5052758;28;20505;-67
2022/09/28 04:23:58;;;;;;;57.57;2.43;;;;;;;;;;5052393;28;20522;-66
2022/09/28 04:26:26;;;;;;;57.90;2.40;;;;;;;;;;5052310;28;21095;-66
2022/09/28 04:31:40;;;;;;;57.97;2.70;;;;;;;;;;5052446;28;20428;-66
2022/09/28 04:34:07;;;;;;;57.77;2.53;;;;;;;;;;5049481;28;20961;-66
2022/09/28 04:36:34;;;;;;;57.87;2.40;;;;;;;;;;5052100;28;20448;-66
2022/09/28 04:39:02;;;;;;;58.40;2.60;;;;;;;;;;5051890;28;20448;-66
2022/09/28 04:41:29;;;;;;;57.97;2.50;;;;;;;;;;5052406;28;20478;-66
2022/09/28 04:43:57;;;;;;;57.80;2.40;;;;;;;;;;5052288;28;20452;-66
2022/09/28 04:46:24;;;;;;;57.77;2.40;;;;;;;;;;5051778;28;20484;-66
2022/09/28 04:48:52;;;;;;;57.73;2.37;;;;;;;;;;5051675;28;20559;-66
2022/09/28 04:51:19;;;;;;;57.87;2.43;;;;;;;;;;5052348;28;20452;-65
2022/09/28 04:53:46;;;;;;;58.27;2.60;;;;;;;;;;5051488;28;20448;-66
2022/09/28 04:56:14;;;;;;;57.87;2.30;;;;;;;;;;5051965;28;21015;-65
2022/09/28 04:58:41;;;;;;;58.03;2.40;;;;;;;;;;5051647;28;20475;-65
2022/09/28 05:01:11;;;;;;;57.87;2.40;;;;;;;;;;5052114;28;20448;-65
2022/09/28 05:03:38;;;;;;;57.90;2.50;;;;;;;;;;5051827;28;20455;-65
2022/09/28 05:06:06;;;;;;;58.00;2.63;;;;;;;;;;5048164;28;20468;-66
2022/09/28 05:08:34;;;;;;;58.10;2.70;;;;;;;;;;5051862;28;20456;-65
2022/09/28 05:11:02;;;;;;;57.93;2.60;;;;;;;;;;5051788;28;20538;-66
2022/09/28 05:13:29;;;;;;;58.03;2.50;;;;;;;;;;5051765;28;20474;-66
2022/09/28 05:15:57;;;;;;;58.10;2.37;;;;;;;;;;5051623;28;20464;-66
2022/09/28 05:18:25;;;;;;;57.67;2.40;;;;;;;;;;5051360;28;20828;-66
2022/09/28 05:20:52;;;;;;;59.67;3.83;;;;;;;;;;5051646;28;20448;-66
2022/09/28 05:23:20;;;;;;;58.10;2.63;;;;;;;;;;5051836;28;20452;-66
2022/09/28 05:25:47;;;;;;;57.97;2.70;;;;;;;;;;5051319;28;20988;-66
2022/09/28 05:28:14;;;;;;;58.17;2.80;;;;;;;;;;5051531;28;20484;-66
2022/09/28 05:30:41;;;;;;;57.93;2.50;;;;;;;;;;5051082;28;20826;-65
2022/09/28 05:33:08;;;;;;;58.30;2.90;;;;;;;;;;5051691;28;20448;-65
2022/09/28 05:35:38;;;;;;;57.93;2.50;;;;;;;;;;5051214;28;20506;-66
2022/09/28 05:38:05;;;;;;;57.67;2.40;;;;;;;;;;5049010;28;20448;-66
2022/09/28 05:40:32;;;;;;;57.90;2.40;;;;;;;;;;5051323;28;20444;-65
2022/09/28 05:43:00;;;;;;;57.77;2.40;;;;;;;;;;5051927;28;20452;-65
2022/09/28 05:45:28;;;;;;;57.97;2.40;;;;;;;;;;5051389;28;20820;-66
2022/09/28 05:47:55;;;;;;;57.63;2.40;;;;;;;;;;5051267;28;20875;-66
2022/09/28 05:50:22;;;;;;;57.77;2.40;;;;;;;;;;5051149;28;20444;-66
2022/09/28 05:52:59;;;;;;;58.17;2.70;;;;;;;;;;5051377;28;20459;-66
2022/09/28 05:55:26;;;;;;;58.17;2.43;;;;;;;;;;5051215;28;20475;-65
2022/09/28 05:57:53;;;;;;;57.97;2.50;;;;;;;;;;5051118;28;20444;-66
2022/09/28 06:00:20;;;;;;;57.70;2.40;;;;;;;;;;5050712;28;20817;-65
2022/09/28 06:02:55;;;;;;;58.10;2.73;;;;;;;;;;5051068;28;20455;-66
2022/09/28 06:05:23;;;;;;;57.73;2.40;;;;;;;;;;5052470;28;20525;-66
2022/09/28 06:07:50;;;;;;;58.10;2.60;;;;;;;;;;5052948;28;20480;-67
2022/09/28 06:10:18;;;;;;;58.10;2.60;;;;;;;;;;5054378;28;20482;-66
2022/09/28 06:12:46;;;;;;;57.57;2.40;;;;;;;;;;5055359;28;20444;-66
2022/09/28 06:15:14;;;;;;;57.90;2.50;;;;;;;;;;5055086;28;20472;-66
2022/09/28 06:17:42;;;;;;;57.93;2.33;;;;;;;;;;5055213;28;20448;-65
2022/09/28 06:20:10;;;;;;;58.07;2.60;;;;;;;;;;5054397;28;20456;-66
2022/09/28 06:22:37;;;;;;;57.77;2.40;;;;;;;;;;5055042;28;20448;-66
2022/09/28 06:25:05;;;;;;;58.07;2.70;;;;;;;;;;5055305;28;20483;-66
2022/09/28 06:27:34;;;;;;;58.00;2.50;;;;;;;;;;5054550;28;20541;-65
2022/09/28 06:30:02;;;;;;;58.17;2.67;;;;;;;;;;5054402;28;20448;-66
2022/09/28 06:32:29;;;;;;;58.37;2.57;;;;;;;;;;5055025;28;20448;-66
2022/09/28 06:34:56;;;;;;;58.27;2.80;;;;;;;;;;5054524;28;20533;-66
2022/09/28 06:37:24;;;;;;;57.90;2.50;;;;;;;;;;5054611;28;20440;-66
2022/09/28 06:39:52;;;;;;;57.87;2.30;;;;;;;;;;5051977;28;20947;-66
2022/09/28 06:42:19;;;;;;;58.03;2.70;;;;;;;;;;5054827;28;20470;-66
2022/09/28 06:44:48;;;;;;;58.87;2.90;;;;;;;;;;5054646;28;20500;-66
2022/09/28 06:47:16;;;;;;;57.87;2.40;;;;;;;;;;5053873;28;20480;-66
2022/09/28 06:49:44;;;;;;;57.90;2.77;;;;;;;;;;5053877;28;20449;-65
2022/09/28 06:52:12;;;;;;;58.37;2.80;;;;;;;;;;5054520;28;20467;-66
2022/09/28 06:54:39;;;;;;;58.40;2.67;;;;;;;;;;5054465;28;20475;-67
2022/09/28 06:57:06;;;;;;;57.73;2.57;;;;;;;;;;5054521;28;20452;-66
2022/09/28 06:59:33;;;;;;;58.00;2.70;;;;;;;;;;5053818;28;20825;-66
2022/09/28 07:02:02;;;;;;;57.90;2.60;;;;;;;;;;5054287;28;21051;-66
2022/09/28 07:04:30;;;;;;;61.17;3.10;;;;;;;;;;5054078;28;20482;-66
2022/09/28 07:06:57;;;;;;;58.00;2.70;;;;;;;;;;5053951;28;20513;-66
2022/09/28 07:09:25;;;;;;;59.03;2.90;;;;;;;;;;5053647;28;20987;-66
2022/09/28 07:11:52;;;;;;;58.37;3.20;;;;;;;;;;5051677;28;20945;-66
2022/09/28 07:14:21;;;;;;;58.00;2.80;;;;;;;;;;5053963;28;20468;-65
2022/09/28 07:16:48;;;;;;;57.97;2.93;;;;;;;;;;5053017;28;20475;-66
2022/09/28 07:19:16;;;;;;;57.87;2.60;;;;;;;;;;5053454;28;20447;-66
2022/09/28 07:21:43;;;;;;;57.90;2.90;;;;;;;;;;5053709;28;20446;-66
2022/09/28 07:24:12;;;;;;;59.47;3.67;;;;;;;;;;5053843;28;20980;-66
2022/09/28 07:26:40;;;;;;;58.10;2.80;;;;;;;;;;5053612;28;20448;-67
2022/09/28 07:29:07;;;;;;;57.93;3.00;;;;;;;;;;5053195;28;20480;-65
2022/09/28 07:31:34;;;;;;;60.73;2.90;;;;;;;;;;5053315;28;20449;-65
2022/09/28 07:34:01;;;;;;;59.37;3.00;;;;;;;;;;5053725;28;20843;-65
2022/09/28 07:36:30;;;;;;;58.40;3.00;;;;;;;;;;5053559;28;20452;-66
2022/09/28 07:38:57;;;;;;;58.00;2.80;;;;;;;;;;5053256;28;20522;-65
2022/09/28 07:41:31;;;;;;;57.67;2.53;;;;;;;;;;5053442;28;20448;-66
2022/09/28 07:44:04;;;;;;;58.00;2.80;;;;;;;;;;5050813;28;20564;-67
2022/09/28 07:46:31;;;;;;;58.50;3.43;;;;;;;;;;5053590;28;20502;-66
2022/09/28 07:48:58;;;;;;;57.93;2.97;;;;;;;;;;5052699;28;20579;-66
2022/09/28 07:51:25;;;;;;;57.80;2.60;;;;;;;;;;5053295;28;20448;-65
2022/09/28 07:53:54;;;;;;;58.07;2.80;;;;;;;;;;5050468;28;21207;-66
2022/09/28 07:56:21;;;;;;;58.47;3.10;;;;;;;;;;5053195;28;20448;-66
2022/09/28 07:58:48;;;;;;;58.57;2.80;;;;;;;;;;5052778;28;20959;-65
2022/09/28 08:01:16;;;;;;;58.07;3.10;;;;;;;;;;5053073;28;20478;-65
2022/09/28 08:03:46;;;;;;;58.27;3.10;;;;;;;;;;5053302;28;20452;-65
2022/09/28 08:06:13;;;;;;;58.37;3.17;;;;;;;;;;5053059;28;20559;-67
2022/09/28 08:08:43;;;;;;;58.60;2.90;;;;;;;;;;5052169;28;20484;-66
2022/09/28 08:11:12;;;;;;;57.87;2.80;;;;;;;;;;5052681;28;20476;-65
2022/09/28 08:13:39;;;;;;;58.60;3.10;;;;;;;;;;5052944;28;20458;-65
2022/09/28 08:16:07;;;;;;;58.30;3.30;;;;;;;;;;5052791;28;20837;-65
2022/09/28 08:18:34;;;;;;;58.10;3.07;;;;;;;;;;5052673;28;20517;-64
2022/09/28 08:23:46;;;;;;;58.20;3.00;;;;;;;;;;5052565;28;20458;-65
2022/09/28 08:26:14;;;;;;;58.00;3.03;;;;;;;;;;5049813;28;20472;-66
2022/09/28 08:28:42;;;;;;;59.07;3.80;;;;;;;;;;5050917;28;20503;-66
2022/09/28 08:31:09;;;;;;;57.93;2.87;;;;;;;;;;5052506;28;20452;-65
2022/09/28 08:33:37;;;;;;;58.40;3.20;;;;;;;;;;5052226;28;20965;-67
2022/09/28 08:36:04;;;;;;;57.80;2.67;;;;;;;;;;5052216;28;20471;-66
2022/09/28 08:38:32;;;;;;;58.90;3.50;;;;;;;;;;5052424;28;20451;-67
2022/09/28 08:41:04;;;;;;;57.90;2.70;;;;;;;;;;5052245;28;20456;-65
2022/09/28 08:43:41;;;;;;;58.90;3.07;;;;;;;;;;5052609;28;20497;-65
2022/09/28 08:46:10;;;;;;;58.23;3.03;;;;;;;;;;5052337;28;20479;-66
2022/09/28 08:48:47;;;;;;;57.67;2.60;;;;;;;;;;5051109;28;20487;-65
2022/09/28 08:51:17;;;;;;;57.87;2.80;;;;;;;;;;5051915;28;20455;-66
2022/09/28 08:53:49;;;;;;;58.20;3.10;;;;;;;;;;5052057;28;20448;-66
2022/09/28 08:56:19;;;;;;;57.87;2.80;;;;;;;;;;5051952;28;20448;-65
2022/09/28 08:58:57;;;;;;;57.87;3.00;;;;;;;;;;5049258;28;20767;-65
2022/09/28 09:01:24;;;;;;;57.80;2.53;;;;;;;;;;5052033;28;20454;-65
2022/09/28 09:03:51;;;;;;;60.20;2.97;;;;;;;;;;5052103;28;20838;-65
2022/09/28 09:06:22;;;;;;;58.23;3.07;;;;;;;;;;5052069;28;20461;-66
2022/09/28 09:08:54;;;;;;;58.30;3.47;;;;;;;;;;5051190;28;20497;-65
2022/09/28 09:11:27;;;;;;;58.70;2.93;;;;;;;;;;5051751;28;20464;-65
2022/09/28 09:14:07;;;;;;;58.10;3.37;;;;;;;;;;5051824;28;20453;-65
2022/09/28 09:16:39;;;;;;;57.67;2.90;;;;;;;;;;5051700;28;20457;-67
2022/09/28 09:19:11;;;;;;;58.60;3.00;;;;;;;;;;5051594;28;20794;-65
2022/09/28 09:21:40;;;;;;;58.00;2.53;;;;;;;;;;5051652;28;20464;-65
2022/09/28 09:24:15;;;;;;;58.30;3.20;;;;;;;;;;5051539;28;20451;-65
2022/09/28 09:26:43;;;;;;;58.50;2.60;;;;;;;;;;5051977;28;20449;-65
2022/09/28 09:29:21;;;;;;;57.83;2.70;;;;;;;;;;5047927;28;21006;-65
2022/09/28 09:31:58;;;;;;;58.10;2.70;;;;;;;;;;5051940;28;20454;-65
2022/09/28 09:34:34;;;;;;;58.30;2.70;;;;;;;;;;5051089;28;20485;-66
2022/09/28 09:37:19;;;;;;;58.50;2.70;;;;;;;;;;5051704;28;20462;-65
2022/09/28 09:39:52;;;;;;;59.03;3.40;;;;;;;;;;5050587;28;20487;-66
2022/09/28 09:42:28;;;;;;;58.20;2.90;;;;;;;;;;5051443;28;20821;-65
2022/09/28 09:45:08;;;;;;;58.10;2.93;;;;;;;;;;5050255;28;20555;-65
2022/09/28 09:47:38;;;;;;;58.00;2.70;;;;;;;;;;5051152;28;20889;-65
2022/09/28 09:50:10;;;;;;;58.77;2.70;;;;;;;;;;5047821;28;20476;-65
2022/09/28 09:52:44;;;;;;;57.93;3.10;;;;;;;;;;5050765;28;20450;-65
2022/09/28 09:55:15;;;;;;;60.93;2.90;;;;;;;;;;5049916;28;20561;-65
2022/09/28 09:57:44;;;;;;;60.40;3.50;;;;;;;;;;5050342;28;20445;-65
2022/09/28 10:00:14;;;;;;;64.73;3.53;;;;;;;;;;5049779;28;20457;-65
2022/09/28 10:02:42;;;;;;;58.67;2.80;;;;;;;;;;5050472;28;20448;-65
2022/09/28 10:05:17;;;;;;;57.80;2.40;;;;;;;;;;5051035;28;21032;-65
2022/09/28 10:07:47;;;;;;;58.63;3.40;;;;;;;;;;5050559;28;20447;-67
2022/09/28 10:10:20;;;;;;;60.93;3.00;;;;;;;;;;5050540;28;20869;-66
2022/09/28 10:12:48;;;;;;;57.77;2.50;;;;;;;;;;5050124;28;20823;-66
2022/09/28 10:15:23;;;;;;;57.70;2.30;;;;;;;;;;5050232;28;20510;-65
2022/09/28 10:17:51;;;;;;;58.20;2.70;;;;;;;;;;5050187;28;20451;-65
2022/09/28 10:20:18;;;;;;;57.87;2.70;;;;;;;;;;5050028;28;20457;-65
2022/09/28 10:22:46;;;;;;;60.33;2.70;;;;;;;;;;5048494;28;20454;-66
2022/09/28 10:25:13;;;;;;;58.30;2.87;;;;;;;;;;5050280;28;20469;-65
2022/09/28 10:27:43;;;;;;;57.70;2.30;;;;;;;;;;5050536;28;20464;-65
2022/09/28 10:30:15;;;;;;;57.77;2.70;;;;;;;;;;5050447;28;20991;-65
2022/09/28 10:32:44;;;;;;;58.87;2.70;;;;;;;;;;5050173;28;20458;-65
2022/09/28 10:35:14;;;;;;;58.67;3.03;;;;;;;;;;5050428;28;20504;-65
2022/09/28 10:37:51;;;;;;;58.10;2.60;;;;;;;;;;5050512;28;20447;-65
2022/09/28 10:40:29;;;;;;;58.57;2.80;;;;;;;;;;5050591;28;20541;-65
2022/09/28 10:43:00;;;;;;;57.90;2.47;;;;;;;;;;5050423;28;20454;-65
2022/09/28 10:45:27;;;;;;;58.60;3.10;;;;;;;;;;5050919;28;20470;-65
2022/09/28 10:47:56;;;;;;;58.00;2.50;;;;;;;;;;5050895;28;20463;-66
2022/09/28 10:50:24;;;;;;;58.00;2.93;;;;;;;;;;5050751;28;20468;-68
2022/09/28 10:52:51;;;;;;;57.53;2.30;;;;;;;;;;5052469;28;20443;-66
2022/09/28 10:55:27;;;;;;;57.70;2.40;;;;;;;;;;5054363;28;20478;-65
2022/09/28 10:57:54;;;;;;;57.57;2.60;;;;;;;;;;5054175;28;20451;-65
2022/09/28 11:00:30;;;;;;;58.43;2.63;;;;;;;;;;5054098;28;20951;-67
2022/09/28 11:02:59;;;;;;;57.80;2.30;;;;;;;;;;5054317;28;20454;-66
2022/09/28 11:05:27;;;;;;;59.20;3.10;;;;;;;;;;5054382;28;20468;-66
2022/09/28 11:07:54;;;;;;;58.30;2.63;;;;;;;;;;5054145;28;20450;-66
2022/09/28 11:10:23;;;;;;;57.60;2.20;;;;;;;;;;5053843;28;21151;-68
2022/09/28 11:12:51;;;;;;;58.87;2.73;;;;;;;;;;5053890;28;20859;-66
2022/09/28 11:15:19;;;;;;;57.70;2.57;;;;;;;;;;5054279;28;20833;-67
2022/09/28 11:17:47;;;;;;;57.87;2.57;;;;;;;;;;5054096;28;20451;-65
2022/09/28 11:20:29;;;;;;;58.00;2.97;;;;;;;;;;5053743;28;20531;-66
2022/09/28 11:22:56;;;;;;;58.40;2.60;;;;;;;;;;5053836;28;20451;-66
2022/09/28 11:25:25;;;;;;;58.30;2.67;;;;;;;;;;5053755;28;20467;-66
2022/09/28 11:28:00;;;;;;;58.10;2.70;;;;;;;;;;5054068;28;20455;-66
2022/09/28 11:30:29;;;;;;;57.17;2.20;;;;;;;;;;5053662;28;20444;-66
2022/09/28 11:33:00;;;;;;;57.47;2.40;;;;;;;;;;5053377;28;20491;-68
2022/09/28 11:35:35;;;;;;;57.67;2.37;;;;;;;;;;5053521;28;20488;-66
2022/09/28 11:38:17;;;;;;;58.10;2.70;;;;;;;;;;5053713;28;20456;-67
2022/09/28 11:40:50;;;;;;;62.83;3.93;;;;;;;;;;5040977;28;20452;-65
2022/09/28 11:43:21;;;;;;;57.53;2.60;;;;;;;;;;5053484;28;20491;-65
2022/09/28 11:45:52;;;;;;;57.23;2.20;;;;;;;;;;5053370;28;20460;-66
2022/09/28 11:48:22;;;;;;;58.10;2.50;;;;;;;;;;5053619;28;20448;-67
2022/09/28 11:50:52;;;;;;;57.47;2.27;;;;;;;;;;5053460;28;20453;-67
2022/09/28 11:53:22;;;;;;;57.63;2.50;;;;;;;;;;5053232;28;20454;-67
2022/09/28 11:55:52;;;;;;;58.20;3.00;;;;;;;;;;5053220;28;20472;-66
2022/09/28 11:58:23;;;;;;;57.87;2.30;;;;;;;;;;5053027;28;20443;-69
2022/09/28 12:00:51;;;;;;;57.63;2.20;;;;;;;;;;5053206;28;20527;-66
2022/09/28 12:03:21;;;;;;;57.60;2.10;;;;;;;;;;5052644;28;20975;-65
2022/09/28 12:05:50;;;;;;;58.40;3.20;;;;;;;;;;5053260;28;20472;-66
2022/09/28 12:08:24;;;;;;;57.90;2.30;;;;;;;;;;5052985;28;20450;-65
2022/09/28 12:10:54;;;;;;;58.23;2.40;;;;;;;;;;5052576;28;20456;-66
2022/09/28 12:13:24;;;;;;;58.63;2.40;;;;;;;;;;5050557;28;20479;-66
2022/09/28 12:15:53;;;;;;;59.93;2.60;;;;;;;;;;5052611;28;20518;-67
2022/09/28 12:18:23;;;;;;;60.33;2.60;;;;;;;;;;5052643;28;20448;-67
2022/09/28 12:20:52;;;;;;;58.03;2.40;;;;;;;;;;5052680;28;20454;-68
2022/09/28 12:23:24;;;;;;;59.03;2.30;;;;;;;;;;5046240;28;20790;-72
2022/09/28 12:25:54;;;;;;;57.77;2.37;;;;;;;;;;5046337;28;20472;-66
2022/09/28 12:28:27;;;;;;;58.77;2.90;;;;;;;;;;5046989;28;20444;-66
2022/09/28 12:30:55;;;;;;;57.40;2.20;;;;;;;;;;5051984;28;20454;-67
2022/09/28 12:33:22;;;;;;;57.80;2.73;;;;;;;;;;5032039;28;20453;-70
2022/09/28 12:35:57;;;;;;;57.47;2.37;;;;;;;;;;5032272;28;20466;-66
2022/09/28 12:38:35;;;;;;;58.83;2.30;;;;;;;;;;5032389;28;20966;-66
2022/09/28 12:41:05;;;;;;;57.70;2.20;;;;;;;;;;5032633;28;20960;-67
2022/09/28 12:43:53;;;;;;;58.00;2.30;;;;;;;;;;5030975;28;20452;-67
2022/09/28 12:46:29;;;;;;;58.97;2.43;;;;;;;;;;5052203;28;20444;-67
2022/09/28 12:49:05;;;;;;;57.70;2.23;;;;;;;;;;5051901;28;20487;-66
2022/09/28 12:51:40;;;;;;;58.20;2.30;;;;;;;;;;5052400;28;20459;-66
2022/09/28 12:54:14;;;;;;;59.03;2.30;;;;;;;;;;5051708;28;20814;-66
2022/09/28 12:56:42;;;;;;;58.77;2.73;;;;;;;;;;5051795;28;20455;-67
2022/09/28 12:59:16;;;;;;;57.33;2.20;;;;;;;;;;5051750;28;20449;-68
2022/09/28 13:01:49;;;;;;;57.97;2.50;;;;;;;;;;5052335;28;20546;-66
2022/09/28 13:04:23;;;;;;;57.70;2.40;;;;;;;;;;5051823;28;20986;-66
2022/09/28 13:06:57;;;;;;;57.70;2.20;;;;;;;;;;5051909;28;20448;-67
2022/09/28 13:09:26;;;;;;;57.70;2.20;;;;;;;;;;5051729;28;20490;-67
2022/09/28 13:12:13;;;;;;;58.80;2.90;;;;;;;;;;5052031;28;20459;-67
2022/09/28 13:15:04;;;;;;;65.87;4.93;;;;;;;;;;5051040;28;20464;-65
2022/09/28 13:17:38;;;;;;;59.07;2.80;;;;;;;;;;5049158;28;20467;-65
2022/09/28 13:20:14;;;;;;;58.10;2.67;;;;;;;;;;5051376;28;20455;-65
2022/09/28 13:22:45;;;;;;;57.57;2.20;;;;;;;;;;5052127;28;21072;-66
2022/09/28 13:25:15;;;;;;;57.67;2.40;;;;;;;;;;5051156;28;20468;-66
2022/09/28 13:27:45;;;;;;;64.97;5.63;;;;;;;;;;5051283;28;20448;-66
2022/09/28 13:30:14;;;;;;;58.40;2.93;;;;;;;;;;5051160;28;20480;-66
2022/09/28 13:32:41;;;;;;;58.10;2.50;;;;;;;;;;5051350;28;20444;-65
2022/09/28 13:35:13;;;;;;;58.47;3.10;;;;;;;;;;5050881;28;21014;-65
2022/09/28 13:37:40;;;;;;;58.10;2.60;;;;;;;;;;5051144;28;20462;-67
2022/09/28 13:40:08;;;;;;;57.43;2.30;;;;;;;;;;5051221;28;20502;-67
2022/09/28 13:42:53;;;;;;;57.70;2.27;;;;;;;;;;5051887;28;20448;-67
2022/09/28 13:45:50;;;;;;;60.57;2.60;;;;;;;;;;5051392;28;20472;-67
2022/09/28 13:48:18;;;;;;;58.00;2.60;;;;;;;;;;4987656;28;20447;-67
2022/09/28 13:51:04;;;;;;;57.67;2.37;;;;;;;;;;5022181;28;20507;-66
2022/09/28 13:53:37;;;;;;;57.17;2.20;;;;;;;;;;5031683;28;20452;-66
2022/09/28 13:56:14;;;;;;;57.27;2.20;;;;;;;;;;5030827;28;20997;-69
2022/09/28 13:58:44;;;;;;;58.97;2.43;;;;;;;;;;5031505;28;20456;-66
2022/09/28 14:01:13;;;;;;;57.67;2.30;;;;;;;;;;5031198;28;20791;-66
2022/09/28 14:03:53;;;;;;;63.97;4.17;;;;;;;;;;5031458;28;20445;-68
2022/09/28 14:06:24;;;;;;;60.80;3.20;;;;;;;;;;5031118;28;20453;-65
2022/09/28 14:09:08;;;;;;;57.63;2.50;;;;;;;;;;5030884;28;20453;-66
2022/09/28 14:11:44;;;;;;;57.57;2.40;;;;;;;;;;5031181;28;20539;-66
2022/09/28 14:14:39;;;;;;;57.67;2.30;;;;;;;;;;5031306;28;20475;-66
2022/09/28 14:17:24;;;;;;;58.50;2.80;;;;;;;;;;5017969;28;20829;-66
2022/09/28 14:19:54;;;;;;;57.33;2.63;;;;;;;;;;5043209;28;20453;-67
2022/09/28 14:22:25;;;;;;;57.70;2.20;;;;;;;;;;5051354;28;20447;-69
2022/09/28 14:25:04;;;;;;;57.70;2.20;;;;;;;;;;5051205;28;20479;-66
2022/09/28 14:27:41;;;;;;;57.70;2.60;;;;;;;;;;5054453;28;20824;-67
2022/09/28 14:30:19;;;;;;;60.27;2.67;;;;;;;;;;5054496;28;20479;-65
2022/09/28 14:32:49;;;;;;;57.17;2.17;;;;;;;;;;5054742;28;20448;-66
2022/09/28 14:35:21;;;;;;;57.50;2.50;;;;;;;;;;5053992;28;20484;-66
2022/09/28 14:41:11;;;;;;;57.87;2.47;;;;;;;;;;5054379;28;20531;-67
2022/09/28 14:43:53;;;;;;;57.40;2.37;;;;;;;;;;5053993;28;20436;-68
2022/09/28 14:46:28;;;;;;;57.57;2.40;;;;;;;;;;5054056;28;20949;-66
2022/09/28 14:48:55;;;;;;;57.27;2.20;;;;;;;;;;5053831;28;20446;-66
2022/09/28 14:51:42;;;;;;;57.23;2.10;;;;;;;;;;5052499;28;20498;-65
2022/09/28 14:54:17;;;;;;;58.47;2.40;;;;;;;;;;5054365;28;20975;-65
2022/09/28 14:56:46;;;;;;;65.20;2.77;;;;;;;;;;5053778;28;20451;-67
2022/09/28 14:59:16;;;;;;;57.17;2.00;;;;;;;;;;5054340;28;20448;-66